createdAt,value
2024-05-09T00:00:38.953Z,3.00
2024-05-09T00:03:27.280Z,4.30
2024-05-09T00:05:54.187Z,3.90
2024-05-09T00:08:21.216Z,4.00
2024-05-09T00:10:48.179Z,4.70
2024-05-09T00:13:15.118Z,4.00
2024-05-09T00:15:41.905Z,4.40
2024-05-09T00:18:08.996Z,4.80
2024-05-09T00:20:39.593Z,3.80
2024-05-09T00:23:09.763Z,4.00
2024-05-09T00:25:37.557Z,3.70
2024-05-09T00:28:05.075Z,4.00
2024-05-09T00:30:35.326Z,4.10
2024-05-09T00:33:05.724Z,3.60
2024-05-09T00:35:34.018Z,4.30
2024-05-09T00:38:01.108Z,3.30
2024-05-09T00:40:39.103Z,4.10
2024-05-09T00:43:09.084Z,3.60
2024-05-09T00:45:36.103Z,3.50
2024-05-09T00:48:05.597Z,3.70
2024-05-09T00:50:39.511Z,3.80
2024-05-09T00:53:07.952Z,4.30
2024-05-09T00:55:36.266Z,3.90
2024-05-09T00:58:05.009Z,3.80
2024-05-09T01:00:38.387Z,4.40
2024-05-09T01:03:09.109Z,4.20
2024-05-09T01:05:38.142Z,4.40
2024-05-09T01:08:05.703Z,4.60
2024-05-09T01:10:35.160Z,4.20
2024-05-09T01:13:04.281Z,6.80
2024-05-09T01:15:31.466Z,5.40
2024-05-09T01:18:06.404Z,4.50
2024-05-09T01:20:40.983Z,4.80
2024-05-09T01:23:11.874Z,4.20
2024-05-09T01:25:39.179Z,4.30
2024-05-09T01:28:06.596Z,4.00
2024-05-09T01:30:36.025Z,4.60
2024-05-09T01:33:06.589Z,4.20
2024-05-09T01:35:35.101Z,4.50
2024-05-09T01:38:02.272Z,4.70
2024-05-09T01:40:37.114Z,4.80
2024-05-09T01:43:07.870Z,4.50
2024-05-09T01:45:34.961Z,4.50
2024-05-09T01:48:02.704Z,4.40
2024-05-09T01:50:38.013Z,4.30
2024-05-09T01:53:09.639Z,4.30
2024-05-09T01:55:36.845Z,4.90
2024-05-09T01:58:03.837Z,4.70
2024-05-09T02:00:38.181Z,4.30
2024-05-09T02:03:11.041Z,5.60
2024-05-09T02:05:40.194Z,5.00
2024-05-09T02:08:07.265Z,4.80
2024-05-09T02:10:34.109Z,4.40
2024-05-09T02:13:01.014Z,5.30
2024-05-09T02:15:27.926Z,4.90
2024-05-09T02:17:55.327Z,4.50
2024-05-09T02:20:30.622Z,4.90
2024-05-09T02:23:03.819Z,4.00
2024-05-09T02:25:31.453Z,4.30
2024-05-09T02:27:58.337Z,4.20
2024-05-09T02:30:35.063Z,5.20
2024-05-09T02:33:06.594Z,4.30
2024-05-09T02:35:33.818Z,4.10
2024-05-09T02:38:01.299Z,4.50
2024-05-09T02:40:35.934Z,4.10
2024-05-09T02:43:10.045Z,4.50
2024-05-09T02:45:38.771Z,5.30
2024-05-09T02:48:06.496Z,4.20
2024-05-09T02:50:38.349Z,4.20
2024-05-09T02:53:10.850Z,3.90
2024-05-09T02:55:38.408Z,4.30
2024-05-09T02:58:08.267Z,4.50
2024-05-09T03:00:39.789Z,4.20
2024-05-09T03:03:11.824Z,4.50
2024-05-09T03:05:41.508Z,4.60
2024-05-09T03:08:08.713Z,4.60
2024-05-09T03:10:38.111Z,5.00
2024-05-09T03:13:07.255Z,4.90
2024-05-09T03:15:34.168Z,4.50
2024-05-09T03:18:01.529Z,5.00
2024-05-09T03:20:33.983Z,4.70
2024-05-09T03:23:04.071Z,4.90
2024-05-09T03:25:31.065Z,5.40
2024-05-09T03:27:58.457Z,4.60
2024-05-09T03:30:36.078Z,4.70
2024-05-09T03:33:13.475Z,4.40
2024-05-09T03:35:42.592Z,4.90
2024-05-09T03:38:09.770Z,5.10
2024-05-09T03:40:44.419Z,4.90
2024-05-09T03:43:12.664Z,5.10
2024-05-09T03:45:39.679Z,5.00
2024-05-09T03:48:07.606Z,5.40
2024-05-09T03:50:36.189Z,4.80
2024-05-09T03:53:04.226Z,6.00
2024-05-09T03:55:31.406Z,5.20
2024-05-09T03:57:58.464Z,5.00
2024-05-09T04:00:31.743Z,5.60
2024-05-09T04:03:10.646Z,5.30
2024-05-09T04:05:40.824Z,5.60
2024-05-09T04:08:09.191Z,5.70
2024-05-09T04:10:36.212Z,5.80
2024-05-09T04:13:03.697Z,5.40
2024-05-09T04:15:31.199Z,5.40
2024-05-09T04:17:58.210Z,4.90
2024-05-09T04:20:35.870Z,5.80
2024-05-09T04:23:07.502Z,5.10
2024-05-09T04:25:35.169Z,4.60
2024-05-09T04:28:02.002Z,5.00
2024-05-09T04:30:36.667Z,4.80
2024-05-09T04:33:08.488Z,4.50
2024-05-09T04:35:37.534Z,4.20
2024-05-09T04:38:04.989Z,4.30
2024-05-09T04:40:35.187Z,5.00
2024-05-09T04:43:05.205Z,4.60
2024-05-09T04:45:32.378Z,4.50
2024-05-09T04:47:59.536Z,4.30
2024-05-09T04:50:35.452Z,5.00
2024-05-09T04:53:10.383Z,4.50
2024-05-09T04:55:38.685Z,5.00
2024-05-09T04:58:07.902Z,5.10
2024-05-09T05:00:37.325Z,5.00
2024-05-09T05:03:07.941Z,5.30
2024-05-09T05:05:39.792Z,4.70
2024-05-09T05:08:14.179Z,4.40
2024-05-09T05:10:42.712Z,4.60
2024-05-09T05:13:19.291Z,4.80
2024-05-09T05:15:47.852Z,4.50
2024-05-09T05:18:15.247Z,4.40
2024-05-09T05:20:42.242Z,4.10
2024-05-09T05:23:14.323Z,4.70
2024-05-09T05:25:42.112Z,4.40
2024-05-09T05:28:09.408Z,4.10
2024-05-09T05:30:40.473Z,4.50
2024-05-09T05:33:10.878Z,3.90
2024-05-09T05:35:38.212Z,4.20
2024-05-09T05:38:08.913Z,4.20
2024-05-09T05:40:38.199Z,4.90
2024-05-09T05:43:07.614Z,5.30
2024-05-09T05:45:34.561Z,4.70
2024-05-09T05:48:04.032Z,4.80
2024-05-09T05:50:35.916Z,4.50
2024-05-09T05:55:32.335Z,4.20
2024-05-09T05:57:59.864Z,4.50
2024-05-09T06:00:34.373Z,4.90
2024-05-09T06:03:05.172Z,4.60
2024-05-09T06:05:32.839Z,4.80
2024-05-09T06:07:59.862Z,4.50
2024-05-09T06:10:36.927Z,4.10
2024-05-09T06:13:07.035Z,3.90
2024-05-09T06:15:33.955Z,4.70
2024-05-09T06:18:01.191Z,4.30
2024-05-09T06:20:35.493Z,5.90
2024-05-09T06:23:08.225Z,4.90
2024-05-09T06:25:36.293Z,4.20
2024-05-09T06:28:03.827Z,4.70
2024-05-09T06:30:38.345Z,4.60
2024-05-09T06:33:10.190Z,4.50
2024-05-09T06:35:38.605Z,3.40
2024-05-09T06:38:07.848Z,4.20
2024-05-09T06:40:38.402Z,4.00
2024-05-09T06:43:18.264Z,3.80
2024-05-09T06:45:47.158Z,3.90
2024-05-09T06:48:14.986Z,3.80
2024-05-09T06:50:42.045Z,4.00
2024-05-09T06:53:09.771Z,4.00
2024-05-09T06:55:36.740Z,3.80
2024-05-09T06:58:05.675Z,4.20
2024-05-09T07:00:38.814Z,3.50
2024-05-09T07:03:09.292Z,3.90
2024-05-09T07:05:36.887Z,3.50
2024-05-09T07:08:04.554Z,3.60
2024-05-09T07:10:35.152Z,3.60
2024-05-09T07:13:02.974Z,3.80
2024-05-09T07:15:29.740Z,3.30
2024-05-09T07:17:56.940Z,3.80
2024-05-09T07:20:32.199Z,3.60
2024-05-09T07:23:02.960Z,3.40
2024-05-09T07:25:30.169Z,4.10
2024-05-09T07:27:57.258Z,3.00
2024-05-09T07:30:30.789Z,3.80
2024-05-09T07:33:01.527Z,3.20
2024-05-09T07:35:29.213Z,2.80
2024-05-09T07:37:56.282Z,3.60
2024-05-09T07:40:32.900Z,2.90
2024-05-09T07:43:04.443Z,3.80
2024-05-09T07:45:48.040Z,2.70
2024-05-09T07:53:39.132Z,4.40
2024-05-09T07:56:10.019Z,3.30
2024-05-09T07:58:37.900Z,2.70
2024-05-09T08:01:05.289Z,2.60
2024-05-09T08:03:32.446Z,3.20
2024-05-09T08:05:59.587Z,2.90
2024-05-09T08:08:26.401Z,2.90
2024-05-09T08:10:53.318Z,3.00
2024-05-09T08:13:20.295Z,2.70
2024-05-09T08:15:47.225Z,2.80
2024-05-09T08:18:14.281Z,3.00
2024-05-09T08:20:41.632Z,2.90
2024-05-09T08:23:08.557Z,3.70
2024-05-09T08:25:35.383Z,3.20
2024-05-09T08:28:04.348Z,2.50
2024-05-09T08:30:36.707Z,2.20
2024-05-09T08:35:34.669Z,3.00
2024-05-09T08:38:06.529Z,2.50
2024-05-09T08:40:36.305Z,2.00
2024-05-09T08:43:10.842Z,2.30
2024-05-09T08:45:41.422Z,2.60
2024-05-09T08:48:08.661Z,2.40
2024-05-09T08:50:40.199Z,2.10
2024-05-09T08:53:08.098Z,2.10
2024-05-09T08:55:38.172Z,2.40
2024-05-09T08:58:12.196Z,2.60
2024-05-09T09:00:41.391Z,2.60
2024-05-09T09:03:10.925Z,2.30
2024-05-09T09:05:39.824Z,2.20
2024-05-09T09:08:08.210Z,2.40
2024-05-09T09:10:36.221Z,2.30
2024-05-09T09:13:03.636Z,2.20
2024-05-09T09:15:30.787Z,2.30
2024-05-09T09:17:59.063Z,2.10
2024-05-09T09:20:34.070Z,2.40
2024-05-09T09:23:04.234Z,2.30
2024-05-09T09:25:31.704Z,2.00
2024-05-09T09:27:58.968Z,2.40
2024-05-09T09:30:36.336Z,2.30
2024-05-09T09:33:06.332Z,2.60
2024-05-09T09:35:35.034Z,2.40
2024-05-09T09:38:03.621Z,2.40
2024-05-09T09:40:36.109Z,2.60
2024-05-09T09:43:20.476Z,2.40
2024-05-09T09:45:53.345Z,2.40
2024-05-09T09:48:22.190Z,2.40
2024-05-09T09:50:51.623Z,3.10
2024-05-09T09:53:19.416Z,2.60
2024-05-09T09:55:46.442Z,2.40
2024-05-09T09:58:16.406Z,2.50
2024-05-09T10:00:44.337Z,2.90
2024-05-09T10:03:11.451Z,2.80
2024-05-09T10:05:41.311Z,2.60
2024-05-09T10:08:11.275Z,2.70
2024-05-09T10:10:38.304Z,2.20
2024-05-09T10:13:08.796Z,2.60
2024-05-09T10:15:44.491Z,2.30
2024-05-09T10:18:11.649Z,2.90
2024-05-09T10:20:44.898Z,2.60
2024-05-09T10:23:32.809Z,2.30
2024-05-09T10:26:02.006Z,2.30
2024-05-09T10:28:33.394Z,2.30
2024-05-09T10:31:18.078Z,2.60
2024-05-09T10:33:47.483Z,2.70
2024-05-09T10:36:19.111Z,2.70
2024-05-09T10:38:46.296Z,2.60
2024-05-09T10:41:13.145Z,2.40
2024-05-09T10:43:40.817Z,2.60
2024-05-09T10:46:08.580Z,2.40
2024-05-09T10:48:36.799Z,2.60
2024-05-09T10:51:04.146Z,2.60
2024-05-09T10:53:31.356Z,2.20
2024-05-09T10:55:59.149Z,2.60
2024-05-09T10:58:28.039Z,2.40
2024-05-09T11:00:55.341Z,2.30
2024-05-09T11:03:25.983Z,2.50
2024-05-09T11:05:53.488Z,2.60
2024-05-09T11:08:21.585Z,2.40
2024-05-09T11:10:50.704Z,3.20
2024-05-09T11:13:31.131Z,2.50
2024-05-09T11:15:59.601Z,2.00
2024-05-09T11:18:30.645Z,2.30
2024-05-09T11:21:00.604Z,2.50
2024-05-09T11:23:29.380Z,3.00
2024-05-09T11:25:57.973Z,2.20
2024-05-09T11:28:27.383Z,2.30
2024-05-09T11:31:04.840Z,2.40
2024-05-09T11:33:31.766Z,2.60
2024-05-09T11:35:58.679Z,2.60
2024-05-09T11:38:25.490Z,2.00
2024-05-09T11:40:52.339Z,2.30
2024-05-09T11:43:19.370Z,2.30
2024-05-09T11:45:46.419Z,2.60
2024-05-09T11:48:13.415Z,2.50
2024-05-09T11:50:40.454Z,2.30
2024-05-09T11:53:07.455Z,2.50
2024-05-09T11:55:35.635Z,2.50
2024-05-09T11:58:03.132Z,2.00
2024-05-09T12:00:36.591Z,2.10
2024-05-09T12:03:05.971Z,2.10
2024-05-09T12:05:34.139Z,2.20
2024-05-09T12:08:02.058Z,2.10
2024-05-09T12:10:33.685Z,2.50
2024-05-09T12:13:04.771Z,2.30
2024-05-09T12:15:35.129Z,2.30
2024-05-09T12:18:03.911Z,2.20
2024-05-09T12:20:37.068Z,2.50
2024-05-09T12:23:07.888Z,2.10
2024-05-09T12:25:35.975Z,2.10
2024-05-09T12:28:03.265Z,2.00
2024-05-09T12:30:36.630Z,2.10
2024-05-09T12:33:08.167Z,2.00
2024-05-09T12:35:35.468Z,2.20
2024-05-09T12:38:02.503Z,2.10
2024-05-09T12:40:36.261Z,2.20
2024-05-09T12:43:09.878Z,1.80
2024-05-09T12:45:38.363Z,2.40
2024-05-09T12:48:10.324Z,2.00
2024-05-09T12:50:38.152Z,2.30
2024-05-09T12:53:05.482Z,2.00
2024-05-09T12:55:40.584Z,2.20
2024-05-09T12:58:19.329Z,2.00
2024-05-09T13:00:46.950Z,2.10
2024-05-09T13:03:14.312Z,2.10
2024-05-09T13:05:43.729Z,2.20
2024-05-09T13:08:11.151Z,2.30
2024-05-09T13:10:38.203Z,2.00
2024-05-09T13:13:05.206Z,2.20
2024-05-09T13:15:33.888Z,2.00
2024-05-09T13:18:03.146Z,6.30
2024-05-09T13:20:34.464Z,2.70
2024-05-09T13:23:04.953Z,2.40
2024-05-09T13:25:33.691Z,2.30
2024-05-09T13:28:00.652Z,2.50
2024-05-09T13:30:35.660Z,2.00
2024-05-09T13:33:07.872Z,2.00
2024-05-09T13:35:35.905Z,2.40
2024-05-09T13:38:03.457Z,2.20
2024-05-09T13:40:34.402Z,1.90
2024-05-09T13:43:04.046Z,2.10
2024-05-09T13:45:31.227Z,2.00
2024-05-09T13:47:58.576Z,2.40
2024-05-09T13:50:33.275Z,2.20
2024-05-09T13:53:04.220Z,2.40
2024-05-09T13:55:31.131Z,2.00
2024-05-09T13:57:58.072Z,1.90
2024-05-09T14:02:54.899Z,2.10
2024-05-09T14:05:22.046Z,2.30
2024-05-09T14:07:48.997Z,2.10
2024-05-09T14:10:23.002Z,1.90
2024-05-09T14:12:55.418Z,2.00
2024-05-09T14:15:22.314Z,2.10
2024-05-09T14:17:49.244Z,1.90
2024-05-09T14:20:23.859Z,2.00
2024-05-09T14:22:57.480Z,1.90
2024-05-09T14:25:25.562Z,1.90
2024-05-09T14:27:52.533Z,2.40
2024-05-09T14:30:26.468Z,2.00
2024-05-09T14:33:01.427Z,1.80
2024-05-09T14:35:28.439Z,2.00
2024-05-09T14:37:55.249Z,2.10
2024-05-09T14:40:35.344Z,2.10
2024-05-09T14:43:07.761Z,2.30
2024-05-09T14:45:34.982Z,2.90
2024-05-09T14:48:02.442Z,2.40
2024-05-09T14:50:35.820Z,2.20
2024-05-09T14:53:10.396Z,1.70
2024-05-09T14:55:38.379Z,1.90
2024-05-09T14:58:06.218Z,2.10
2024-05-09T15:00:39.418Z,1.70
2024-05-09T15:03:08.683Z,1.90
2024-05-09T15:05:35.711Z,2.20
2024-05-09T15:08:05.902Z,2.00
2024-05-09T15:10:35.753Z,1.80
2024-05-09T15:13:05.020Z,1.90
2024-05-09T15:15:32.272Z,2.20
2024-05-09T15:17:59.789Z,1.40
2024-05-09T15:20:33.677Z,1.90
2024-05-09T15:23:04.626Z,1.80
2024-05-09T15:25:33.341Z,1.90
2024-05-09T15:28:00.413Z,1.70
2024-05-09T15:30:31.889Z,2.10
2024-05-09T15:33:02.320Z,1.90
2024-05-09T15:35:29.166Z,2.10
2024-05-09T15:37:56.393Z,1.60
2024-05-09T15:40:31.754Z,1.80
2024-05-09T15:43:06.088Z,2.10
2024-05-09T15:45:33.650Z,2.20
2024-05-09T15:48:01.800Z,2.60
2024-05-09T15:50:36.424Z,2.30
2024-05-09T15:53:07.826Z,2.00
2024-05-09T15:55:35.673Z,2.20
2024-05-09T15:58:04.262Z,2.00
2024-05-09T16:03:01.864Z,2.30
2024-05-09T16:05:29.041Z,2.40
2024-05-09T16:07:55.983Z,3.60
2024-05-09T16:10:26.146Z,3.60
2024-05-09T16:12:59.036Z,3.70
2024-05-09T16:15:26.008Z,2.70
2024-05-09T16:17:53.171Z,2.50
2024-05-09T16:20:33.212Z,2.60
2024-05-09T16:23:05.464Z,2.40
2024-05-09T16:25:32.296Z,1.90
2024-05-09T16:27:59.577Z,1.70
2024-05-09T16:30:33.840Z,2.40
2024-05-09T16:33:04.296Z,2.40
2024-05-09T16:35:33.550Z,2.40
2024-05-09T16:38:02.538Z,2.20
2024-05-09T16:40:36.960Z,1.80
2024-05-09T16:43:11.342Z,2.20
2024-05-09T16:45:40.229Z,2.20
2024-05-09T16:48:07.954Z,2.50
2024-05-09T16:50:36.072Z,2.30
2024-05-09T16:53:04.889Z,3.10
2024-05-09T16:55:32.563Z,2.50
2024-05-09T16:57:59.976Z,2.30
2024-05-09T17:00:38.116Z,2.10
2024-05-09T17:03:11.202Z,2.00
2024-05-09T17:05:39.251Z,2.20
2024-05-09T17:08:07.362Z,2.20
2024-05-09T17:10:35.490Z,2.20
2024-05-09T17:13:04.285Z,2.30
2024-05-09T17:15:32.633Z,2.30
2024-05-09T17:18:00.914Z,2.40
2024-05-09T17:20:33.220Z,1.90
2024-05-09T17:23:03.482Z,2.20
2024-05-09T17:25:30.322Z,2.20
2024-05-09T17:28:02.130Z,2.80
2024-05-09T17:30:34.917Z,2.20
2024-05-09T17:33:05.706Z,2.60
2024-05-09T17:35:32.627Z,2.50
2024-05-09T17:38:00.835Z,2.20
2024-05-09T17:40:33.119Z,2.50
2024-05-09T17:43:04.147Z,2.70
2024-05-09T17:45:31.915Z,2.40
2024-05-09T17:47:59.228Z,2.40
2024-05-09T17:50:34.065Z,2.40
2024-05-09T17:53:03.534Z,2.40
2024-05-09T17:55:30.430Z,2.80
2024-05-09T17:57:57.906Z,3.20
2024-05-09T18:00:36.239Z,3.00
2024-05-09T18:03:07.834Z,3.40
2024-05-09T18:05:35.215Z,2.70
2024-05-09T18:08:02.455Z,2.70
2024-05-09T18:10:35.643Z,2.50
2024-05-09T18:13:06.478Z,2.90
2024-05-09T18:15:34.121Z,4.70
2024-05-09T18:18:02.290Z,4.90
2024-05-09T18:20:38.074Z,4.10
2024-05-09T18:23:11.119Z,3.00
2024-05-09T18:25:38.131Z,3.40
2024-05-09T18:28:06.121Z,3.20
2024-05-09T18:30:35.560Z,2.80
2024-05-09T18:33:06.564Z,3.10
2024-05-09T18:35:35.285Z,2.70
2024-05-09T18:38:02.627Z,2.90
2024-05-09T18:40:34.414Z,2.90
2024-05-09T18:43:06.114Z,3.10
2024-05-09T18:45:34.801Z,2.40
2024-05-09T18:48:03.693Z,2.70
2024-05-09T18:50:35.685Z,2.40
2024-05-09T18:53:06.003Z,2.40
2024-05-09T18:55:33.035Z,2.30
2024-05-09T18:58:00.060Z,2.40
2024-05-09T19:00:34.243Z,2.60
2024-05-09T19:03:07.247Z,2.70
2024-05-09T19:05:35.557Z,2.80
2024-05-09T19:08:03.385Z,2.60
2024-05-09T19:10:34.362Z,2.90
2024-05-09T19:13:06.814Z,3.00
2024-05-09T19:15:37.846Z,4.30
2024-05-09T19:18:05.727Z,3.90
2024-05-09T19:20:35.204Z,4.00
2024-05-09T19:23:03.922Z,3.70
2024-05-09T19:25:31.209Z,4.00
2024-05-09T19:27:58.221Z,4.10
2024-05-09T19:30:34.476Z,3.60
2024-05-09T19:33:06.871Z,3.60
2024-05-09T19:35:33.802Z,3.80
2024-05-09T19:38:01.065Z,4.10
2024-05-09T19:40:32.016Z,3.80
2024-05-09T19:43:02.328Z,3.60
2024-05-09T19:45:30.050Z,4.00
2024-05-09T19:47:57.263Z,3.60
2024-05-09T19:50:32.157Z,4.50
2024-05-09T19:53:07.058Z,4.90
2024-05-09T19:55:34.351Z,4.50
2024-05-09T19:58:06.364Z,4.30
2024-05-09T20:00:36.945Z,4.10
2024-05-09T20:03:06.361Z,3.90
2024-05-09T20:05:33.936Z,4.40
2024-05-09T20:08:00.972Z,4.90
2024-05-09T20:10:32.456Z,4.50
2024-05-09T20:13:02.130Z,4.80
2024-05-09T20:15:29.351Z,4.30
2024-05-09T20:17:56.619Z,5.20
2024-05-09T20:20:32.602Z,4.80
2024-05-09T20:23:05.454Z,5.30
2024-05-09T20:25:32.329Z,5.10
2024-05-09T20:27:59.170Z,4.50
2024-05-09T20:30:31.815Z,5.00
2024-05-09T20:33:07.815Z,5.40
2024-05-09T20:35:35.809Z,5.30
2024-05-09T20:38:04.020Z,5.60
2024-05-09T20:40:35.481Z,5.40
2024-05-09T20:43:06.748Z,5.20
2024-05-09T20:45:34.417Z,5.30
2024-05-09T20:48:01.835Z,5.60
2024-05-09T20:50:36.879Z,5.10
2024-05-09T20:53:14.536Z,6.10
2024-05-09T20:55:45.617Z,5.40
2024-05-09T20:58:13.125Z,6.00
2024-05-09T21:00:43.798Z,5.50
2024-05-09T21:03:14.449Z,6.00
2024-05-09T21:05:42.822Z,6.20
2024-05-09T21:08:09.893Z,6.50
2024-05-09T21:10:37.518Z,4.80
2024-05-09T21:13:06.045Z,5.30
2024-05-09T21:15:33.993Z,5.50
2024-05-09T21:18:01.136Z,5.10
2024-05-09T21:20:31.934Z,5.00
2024-05-09T21:23:00.765Z,5.70
2024-05-09T21:25:27.886Z,5.40
2024-05-09T21:27:54.977Z,5.20
2024-05-09T21:30:32.379Z,5.60
2024-05-09T21:33:12.697Z,5.40
2024-05-09T21:38:08.302Z,4.90
2024-05-09T21:40:36.894Z,5.00
2024-05-09T21:43:06.248Z,5.20
2024-05-09T21:45:33.714Z,5.00
2024-05-09T21:48:03.504Z,5.20
2024-05-09T21:50:37.032Z,5.10
2024-05-09T21:53:07.935Z,4.70
2024-05-09T21:55:34.831Z,5.80
2024-05-09T21:58:02.061Z,5.00
2024-05-09T22:03:32.555Z,4.70
2024-05-09T22:05:59.489Z,5.30
2024-05-09T22:08:26.511Z,5.10
2024-05-09T22:10:53.300Z,5.60
2024-05-09T22:13:20.257Z,5.70
2024-05-09T22:15:47.168Z,5.60
2024-05-09T22:18:14.011Z,5.30
2024-05-09T22:20:43.016Z,5.30
2024-05-09T22:23:10.336Z,4.80
2024-05-09T22:25:37.627Z,5.90
2024-05-09T22:28:05.393Z,5.70
2024-05-09T22:30:37.115Z,5.00
2024-05-09T22:33:07.879Z,5.20
2024-05-09T22:35:35.179Z,5.90
2024-05-09T22:38:02.652Z,5.80
2024-05-09T22:40:38.871Z,6.00
2024-05-09T22:43:16.788Z,6.20
2024-05-09T22:45:43.915Z,6.10
2024-05-09T22:48:10.903Z,6.60
2024-05-09T22:50:37.805Z,6.10
2024-05-09T22:53:05.045Z,6.40
2024-05-09T22:55:31.855Z,6.10
2024-05-09T22:57:58.752Z,6.30
2024-05-09T23:00:31.491Z,7.50
2024-05-09T23:03:00.853Z,7.20
2024-05-09T23:05:28.313Z,6.20
2024-05-09T23:07:55.243Z,6.80
2024-05-09T23:10:30.828Z,6.60
2024-05-09T23:13:02.189Z,6.10
2024-05-09T23:15:29.272Z,6.20
2024-05-09T23:17:56.354Z,7.10
2024-05-09T23:20:33.328Z,6.20
2024-05-09T23:23:08.493Z,6.10
2024-05-09T23:25:36.480Z,5.80
2024-05-09T23:28:03.736Z,6.70
2024-05-09T23:30:37.455Z,6.90
2024-05-09T23:33:09.002Z,11.90
2024-05-09T23:35:35.910Z,13.70
2024-05-09T23:38:02.885Z,14.30
2024-05-09T23:40:38.261Z,13.20
2024-05-09T23:43:08.950Z,13.50
2024-05-09T23:45:36.477Z,13.20
2024-05-09T23:48:04.014Z,11.40
2024-05-09T23:50:35.568Z,10.50
2024-05-09T23:55:33.385Z,8.70
2024-05-09T23:58:00.793Z,7.40
